createdAt,value
2019-03-31T00:01:57.201Z,11.07
2019-03-31T00:04:28.793Z,10.53
2019-03-31T00:07:00.507Z,10.10
2019-03-31T00:09:32.125Z,9.72
2019-03-31T00:12:03.744Z,9.35
2019-03-31T00:14:35.291Z,9.02
2019-03-31T00:17:08.000Z,12.97
2019-03-31T00:19:39.560Z,14.64
2019-03-31T00:22:11.193Z,13.07
2019-03-31T00:24:42.860Z,11.82
2019-03-31T00:27:14.726Z,10.97
2019-03-31T00:29:46.243Z,10.38
2019-03-31T00:32:17.750Z,9.90
2019-03-31T00:34:49.210Z,9.50
2019-03-31T00:37:20.734Z,9.14
2019-03-31T00:39:52.257Z,8.81
2019-03-31T00:42:23.783Z,12.80
2019-03-31T00:44:55.314Z,15.51
2019-03-31T00:47:26.894Z,13.92
2019-03-31T00:49:58.454Z,12.42
2019-03-31T00:52:29.972Z,11.44
2019-03-31T00:55:01.445Z,10.75
2019-03-31T00:57:32.962Z,10.21
2019-03-31T01:00:07.594Z,9.77
2019-03-31T01:02:40.792Z,9.41
2019-03-31T01:05:12.344Z,9.01
2019-03-31T01:07:44.199Z,8.70
2019-03-31T01:10:15.802Z,12.47
2019-03-31T01:12:47.588Z,15.12
2019-03-31T01:15:20.183Z,13.57
2019-03-31T01:17:52.358Z,12.12
2019-03-31T01:20:23.908Z,11.17
2019-03-31T01:22:57.400Z,10.46
2019-03-31T01:25:29.234Z,9.94
2019-03-31T01:28:01.080Z,9.49
2019-03-31T01:30:32.685Z,9.12
2019-03-31T01:33:04.533Z,8.74
2019-03-31T01:35:36.205Z,12.35
2019-03-31T01:38:07.766Z,15.10
2019-03-31T01:40:39.239Z,13.52
2019-03-31T01:43:10.760Z,12.08
2019-03-31T01:45:42.392Z,11.09
2019-03-31T01:48:13.903Z,10.38
2019-03-31T01:50:45.440Z,9.86
2019-03-31T01:53:17.004Z,9.38
2019-03-31T01:55:48.737Z,8.98
2019-03-31T01:58:21.384Z,8.61
2019-03-31T02:00:54.709Z,8.29
2019-03-31T02:03:26.276Z,7.95
2019-03-31T02:05:58.005Z,11.96
2019-03-31T02:08:30.658Z,14.31
2019-03-31T02:11:02.208Z,12.71
2019-03-31T02:13:33.794Z,11.37
2019-03-31T02:16:06.789Z,10.42
2019-03-31T02:18:38.449Z,9.79
2019-03-31T02:21:11.220Z,9.28
2019-03-31T02:23:42.779Z,8.87
2019-03-31T02:26:14.243Z,8.53
2019-03-31T02:28:45.848Z,8.20
2019-03-31T02:31:17.503Z,11.84
2019-03-31T02:33:49.108Z,15.00
2019-03-31T02:36:21.045Z,13.49
2019-03-31T02:38:52.822Z,11.99
2019-03-31T02:41:25.446Z,11.04
2019-03-31T02:43:57.069Z,10.35
2019-03-31T02:46:28.533Z,9.89
2019-03-31T02:49:00.203Z,9.49
2019-03-31T02:51:31.791Z,9.19
2019-03-31T02:54:03.307Z,8.91
2019-03-31T02:56:34.943Z,12.73
2019-03-31T02:59:06.754Z,15.86
2019-03-31T03:01:38.516Z,14.37
2019-03-31T03:04:10.239Z,12.88
2019-03-31T03:06:41.895Z,11.91
2019-03-31T03:09:13.487Z,11.27
2019-03-31T03:11:45.260Z,10.76
2019-03-31T03:14:16.782Z,10.39
2019-03-31T03:16:48.442Z,10.08
2019-03-31T03:19:20.035Z,9.79
2019-03-31T03:21:51.721Z,13.00
2019-03-31T03:24:23.389Z,16.62
2019-03-31T03:26:54.956Z,15.27
2019-03-31T03:29:26.588Z,13.75
2019-03-31T03:31:58.136Z,12.71
2019-03-31T03:34:29.795Z,12.05
2019-03-31T03:37:01.355Z,11.53
2019-03-31T03:39:32.911Z,11.09
2019-03-31T03:42:04.425Z,10.74
2019-03-31T03:44:35.878Z,10.45
2019-03-31T03:47:07.502Z,10.15
2019-03-31T03:49:39.037Z,14.06
2019-03-31T03:52:11.666Z,16.62
2019-03-31T03:54:43.198Z,15.09
2019-03-31T03:57:14.837Z,13.69
2019-03-31T03:59:46.579Z,12.81
2019-03-31T04:02:18.231Z,12.19
2019-03-31T04:04:49.894Z,11.72
2019-03-31T04:07:21.575Z,11.34
2019-03-31T04:09:53.175Z,11.00
2019-03-31T04:12:24.712Z,10.68
2019-03-31T04:14:56.232Z,14.20
2019-03-31T04:17:28.046Z,17.07
2019-03-31T04:19:59.483Z,15.58
2019-03-31T04:22:31.062Z,14.16
2019-03-31T04:25:02.578Z,13.22
2019-03-31T04:27:34.207Z,12.57
2019-03-31T04:30:06.442Z,12.06
2019-03-31T04:32:39.013Z,11.67
2019-03-31T04:35:10.784Z,11.30
2019-03-31T04:37:42.558Z,10.99
2019-03-31T04:40:14.301Z,10.69
2019-03-31T04:42:47.670Z,14.24
2019-03-31T04:45:19.258Z,17.11
2019-03-31T04:47:50.882Z,15.65
2019-03-31T04:50:23.786Z,14.23
2019-03-31T04:52:56.640Z,13.32
2019-03-31T04:55:28.247Z,12.70
2019-03-31T04:57:59.798Z,12.26
2019-03-31T05:00:32.301Z,11.88
2019-03-31T05:03:03.919Z,11.57
2019-03-31T05:05:35.523Z,11.28
2019-03-31T05:08:07.211Z,11.03
2019-03-31T05:10:38.653Z,10.80
2019-03-31T05:13:10.149Z,14.52
2019-03-31T05:15:42.895Z,17.49
2019-03-31T05:18:14.524Z,16.04
2019-03-31T05:20:46.150Z,14.67
2019-03-31T05:23:17.871Z,13.75
2019-03-31T05:25:49.742Z,13.17
2019-03-31T05:28:21.218Z,12.70
2019-03-31T05:30:52.734Z,12.35
2019-03-31T05:33:24.286Z,12.05
2019-03-31T05:35:55.812Z,11.79
2019-03-31T05:38:27.389Z,11.57
2019-03-31T05:40:58.996Z,11.38
2019-03-31T05:43:30.554Z,11.19
2019-03-31T05:46:02.133Z,15.10
2019-03-31T05:48:33.685Z,18.14
2019-03-31T05:51:05.143Z,16.76
2019-03-31T05:53:36.698Z,15.39
2019-03-31T05:56:08.239Z,14.47
2019-03-31T05:58:39.785Z,13.89
2019-03-31T06:01:11.240Z,13.46
2019-03-31T06:03:42.780Z,13.15
2019-03-31T06:06:14.405Z,12.85
2019-03-31T06:08:45.959Z,12.63
2019-03-31T06:11:17.411Z,12.40
2019-03-31T06:13:49.165Z,12.21
2019-03-31T06:16:20.699Z,12.05
2019-03-31T06:18:52.581Z,11.88
2019-03-31T06:21:29.078Z,15.07
2019-03-31T06:23:59.251Z,18.71
2019-03-31T06:26:31.805Z,17.39
2019-03-31T06:29:03.749Z,16.08
2019-03-31T06:31:36.309Z,15.22
2019-03-31T06:34:08.306Z,14.61
2019-03-31T06:36:39.839Z,14.18
2019-03-31T06:39:12.355Z,13.83
2019-03-31T06:41:44.711Z,13.55
2019-03-31T06:44:16.711Z,13.31
2019-03-31T06:46:48.739Z,13.13
2019-03-31T06:49:21.850Z,12.90
2019-03-31T06:51:53.673Z,12.81
2019-03-31T06:54:26.227Z,12.67
2019-03-31T06:56:58.204Z,12.56
2019-03-31T06:59:29.986Z,12.46
2019-03-31T07:02:03.180Z,12.35
2019-03-31T07:04:35.300Z,15.96
2019-03-31T07:07:07.793Z,17.31
2019-03-31T07:09:39.551Z,16.07
2019-03-31T07:12:11.375Z,15.09
2019-03-31T07:14:43.080Z,14.44
2019-03-31T07:17:14.735Z,13.98
2019-03-31T07:19:47.017Z,13.60
2019-03-31T07:22:19.524Z,13.31
2019-03-31T07:24:52.258Z,13.03
2019-03-31T07:27:23.935Z,12.77
2019-03-31T07:29:55.590Z,12.57
2019-03-31T07:32:27.183Z,12.39
2019-03-31T07:34:58.679Z,12.18
2019-03-31T07:37:30.177Z,12.85
2019-03-31T07:40:01.739Z,17.78
2019-03-31T07:42:33.386Z,18.38
2019-03-31T07:45:07.446Z,16.81
2019-03-31T07:47:39.101Z,15.68
2019-03-31T07:50:13.247Z,14.93
2019-03-31T07:52:44.768Z,14.38
2019-03-31T07:55:16.246Z,14.04
2019-03-31T07:57:48.836Z,13.75
2019-03-31T08:00:24.695Z,13.45
2019-03-31T08:03:00.125Z,13.24
2019-03-31T08:05:33.383Z,13.00
2019-03-31T08:08:04.131Z,12.80
2019-03-31T08:10:36.090Z,12.64
2019-03-31T08:13:08.164Z,12.49
2019-03-31T08:15:41.441Z,12.35
2019-03-31T08:18:13.458Z,12.23
2019-03-31T08:20:45.330Z,16.15
2019-03-31T08:23:17.895Z,17.27
2019-03-31T08:25:50.292Z,16.02
2019-03-31T08:28:23.147Z,15.10
2019-03-31T08:30:55.287Z,14.51
2019-03-31T08:33:27.961Z,14.13
2019-03-31T08:35:59.696Z,13.83
2019-03-31T08:38:31.604Z,13.62
2019-03-31T08:41:04.787Z,13.41
2019-03-31T08:43:36.855Z,13.22
2019-03-31T08:46:09.573Z,13.08
2019-03-31T08:48:42.383Z,12.94
2019-03-31T08:51:14.655Z,12.87
2019-03-31T08:53:46.926Z,12.81
2019-03-31T08:56:19.186Z,12.74
2019-03-31T08:58:51.740Z,12.68
2019-03-31T09:01:23.759Z,12.71
2019-03-31T09:03:55.778Z,17.20
2019-03-31T09:06:27.648Z,17.59
2019-03-31T09:08:59.931Z,16.52
2019-03-31T09:11:31.613Z,15.73
2019-03-31T09:14:03.759Z,15.13
2019-03-31T09:16:36.081Z,14.82
2019-03-31T09:19:08.210Z,14.51
2019-03-31T09:21:40.969Z,14.25
2019-03-31T09:24:13.166Z,14.03
2019-03-31T09:26:46.009Z,13.85
2019-03-31T09:29:18.030Z,13.70
2019-03-31T09:31:50.227Z,13.55
2019-03-31T09:34:22.279Z,13.49
2019-03-31T09:36:55.147Z,13.39
2019-03-31T09:39:27.124Z,13.31
2019-03-31T09:41:59.014Z,13.25
2019-03-31T09:44:31.128Z,13.18
2019-03-31T09:47:03.224Z,13.07
2019-03-31T09:49:36.160Z,12.95
2019-03-31T09:52:07.939Z,12.84
2019-03-31T09:54:40.256Z,12.74
2019-03-31T09:57:12.435Z,12.66
2019-03-31T09:59:44.435Z,12.60
2019-03-31T10:02:16.860Z,12.59
2019-03-31T10:04:49.250Z,12.59
2019-03-31T10:07:23.839Z,12.62
2019-03-31T10:09:55.053Z,12.62
2019-03-31T10:12:26.505Z,12.57
2019-03-31T10:14:59.102Z,12.53
2019-03-31T10:17:30.888Z,12.47
2019-03-31T10:20:03.005Z,12.40
2019-03-31T10:22:34.771Z,12.36
2019-03-31T10:25:08.315Z,12.36
2019-03-31T10:27:40.167Z,12.43
2019-03-31T10:30:12.447Z,12.43
2019-03-31T10:32:44.313Z,12.49
2019-03-31T10:35:15.871Z,12.56
2019-03-31T10:37:47.914Z,12.62
2019-03-31T10:40:19.678Z,12.63
2019-03-31T10:42:51.881Z,12.67
2019-03-31T10:45:24.766Z,12.71
2019-03-31T10:47:56.992Z,12.71
2019-03-31T10:50:28.693Z,12.71
2019-03-31T10:53:00.776Z,12.70
2019-03-31T10:55:32.854Z,12.64
2019-03-31T10:58:04.490Z,12.64
2019-03-31T11:00:37.833Z,12.68
2019-03-31T11:03:09.529Z,12.77
2019-03-31T11:05:41.066Z,12.85
2019-03-31T11:08:12.754Z,12.90
2019-03-31T11:10:45.356Z,12.95
2019-03-31T11:13:16.824Z,13.00
2019-03-31T11:15:48.706Z,13.05
2019-03-31T11:18:20.163Z,13.13
2019-03-31T11:20:51.682Z,13.19
2019-03-31T11:23:24.778Z,13.29
2019-03-31T11:25:56.372Z,13.32
2019-03-31T11:28:27.979Z,13.36
2019-03-31T11:30:59.430Z,13.45
2019-03-31T11:33:31.011Z,13.48
2019-03-31T11:36:02.526Z,13.49
2019-03-31T11:38:34.201Z,13.53
2019-03-31T11:41:05.730Z,13.57
2019-03-31T11:43:37.287Z,13.60
2019-03-31T11:46:08.741Z,13.63
2019-03-31T11:48:40.379Z,13.62
2019-03-31T11:51:11.819Z,13.65
2019-03-31T11:53:43.358Z,13.63
2019-03-31T11:56:15.020Z,13.67
2019-03-31T11:58:46.576Z,13.66
2019-03-31T12:01:18.265Z,13.66
2019-03-31T12:03:49.929Z,13.67
2019-03-31T12:06:21.507Z,13.65
2019-03-31T12:08:53.199Z,13.59
2019-03-31T12:11:24.716Z,13.62
2019-03-31T12:13:56.586Z,13.63
2019-03-31T12:16:30.367Z,13.63
2019-03-31T12:19:02.006Z,13.59
2019-03-31T12:21:33.662Z,13.57
2019-03-31T12:24:05.281Z,13.55
2019-03-31T12:26:36.827Z,13.55
2019-03-31T12:29:08.430Z,13.56
2019-03-31T12:31:39.890Z,13.60
2019-03-31T12:34:11.507Z,13.65
2019-03-31T12:36:43.181Z,13.69
2019-03-31T12:39:14.741Z,13.80
2019-03-31T12:41:46.347Z,13.92
2019-03-31T12:44:18.128Z,13.90
2019-03-31T12:46:49.798Z,13.83
2019-03-31T12:49:21.549Z,13.80
2019-03-31T12:51:55.102Z,13.73
2019-03-31T12:54:26.352Z,13.65
2019-03-31T12:56:59.049Z,13.55
2019-03-31T12:59:30.680Z,13.52
2019-03-31T13:02:02.262Z,13.45
2019-03-31T13:04:33.780Z,13.39
2019-03-31T13:07:05.374Z,13.31
2019-03-31T13:09:38.017Z,13.21
2019-03-31T13:12:09.617Z,13.18
2019-03-31T13:14:41.387Z,13.14
2019-03-31T13:17:12.972Z,13.07
2019-03-31T13:19:44.583Z,13.00
2019-03-31T13:22:16.359Z,13.04
2019-03-31T13:24:48.322Z,13.43
2019-03-31T13:27:20.033Z,13.92
2019-03-31T13:29:51.628Z,14.24
2019-03-31T13:32:23.293Z,14.38
2019-03-31T13:34:54.964Z,14.40
2019-03-31T13:37:26.536Z,14.41
2019-03-31T13:39:58.248Z,14.34
2019-03-31T13:42:29.787Z,14.24
2019-03-31T13:45:01.432Z,14.14
2019-03-31T13:47:32.947Z,14.01
2019-03-31T13:50:08.151Z,13.92
2019-03-31T13:52:39.849Z,13.82
2019-03-31T13:55:11.570Z,13.83
2019-03-31T13:57:44.411Z,13.75
2019-03-31T14:00:35.651Z,13.65
2019-03-31T14:03:07.251Z,13.50
2019-03-31T14:05:38.965Z,13.38
2019-03-31T14:08:24.632Z,13.29
2019-03-31T14:10:43.788Z,13.22
2019-03-31T14:13:15.298Z,13.13
2019-03-31T14:15:47.408Z,13.00
2019-03-31T14:18:19.256Z,12.85
2019-03-31T14:20:51.115Z,12.78
2019-03-31T14:23:22.596Z,12.66
2019-03-31T14:25:54.403Z,12.62
2019-03-31T14:28:25.850Z,12.54
2019-03-31T14:30:57.393Z,12.52
2019-03-31T14:33:28.968Z,12.53
2019-03-31T14:36:00.436Z,12.97
2019-03-31T14:38:40.124Z,13.62
2019-03-31T14:41:05.361Z,14.31
2019-03-31T14:43:36.936Z,14.88
2019-03-31T14:46:08.483Z,15.34
2019-03-31T14:48:40.546Z,15.78
2019-03-31T14:51:13.161Z,16.22
2019-03-31T14:53:44.747Z,16.69
2019-03-31T14:56:17.284Z,17.08
2019-03-31T14:58:48.729Z,17.51
2019-03-31T15:01:21.378Z,17.85
2019-03-31T15:03:53.043Z,18.17
2019-03-31T15:06:24.683Z,18.50
2019-03-31T15:08:56.699Z,18.61
2019-03-31T15:11:28.384Z,18.23
2019-03-31T15:13:59.967Z,17.79
2019-03-31T15:16:31.495Z,17.35
2019-03-31T15:19:03.033Z,17.00
2019-03-31T15:21:34.587Z,16.64
2019-03-31T15:24:06.123Z,16.29
2019-03-31T15:26:37.594Z,15.98
2019-03-31T15:29:09.045Z,15.61
2019-03-31T15:31:40.591Z,15.30
2019-03-31T15:34:12.201Z,15.03
2019-03-31T15:36:43.744Z,14.75
2019-03-31T15:39:15.351Z,14.54
2019-03-31T15:41:46.878Z,14.30
2019-03-31T15:44:18.402Z,14.08
2019-03-31T15:46:50.012Z,13.87
2019-03-31T15:49:21.610Z,13.66
2019-03-31T15:51:53.235Z,13.53
2019-03-31T15:54:24.678Z,13.35
2019-03-31T15:56:56.212Z,13.28
2019-03-31T15:59:27.694Z,13.18
2019-03-31T16:01:59.474Z,13.13
2019-03-31T16:04:30.998Z,13.05
2019-03-31T16:07:02.535Z,13.00
2019-03-31T16:09:34.119Z,12.90
2019-03-31T16:12:05.669Z,12.81
2019-03-31T16:14:37.332Z,12.75
2019-03-31T16:17:08.965Z,12.66
2019-03-31T16:19:40.434Z,12.54
2019-03-31T16:22:12.039Z,12.46
2019-03-31T16:24:48.331Z,12.35
2019-03-31T16:27:20.565Z,12.21
2019-03-31T16:29:52.423Z,12.11
2019-03-31T16:32:24.540Z,11.99
2019-03-31T16:34:57.067Z,11.86
2019-03-31T16:37:29.819Z,11.77
2019-03-31T16:40:01.921Z,11.67
2019-03-31T16:42:33.939Z,11.58
2019-03-31T16:45:07.835Z,11.50
2019-03-31T16:47:39.885Z,11.41
2019-03-31T16:50:11.751Z,11.30
2019-03-31T16:52:43.536Z,11.19
2019-03-31T16:55:16.991Z,11.10
2019-03-31T16:57:49.666Z,10.99
2019-03-31T17:00:21.818Z,10.90
2019-03-31T17:02:54.255Z,10.79
2019-03-31T17:05:26.606Z,10.66
2019-03-31T17:07:58.854Z,10.56
2019-03-31T17:10:31.400Z,10.48
2019-03-31T17:13:03.407Z,10.38
2019-03-31T17:15:35.676Z,10.24
2019-03-31T17:18:10.816Z,10.14
2019-03-31T17:20:46.006Z,10.04
2019-03-31T17:23:18.320Z,9.93
2019-03-31T17:25:50.485Z,9.83
2019-03-31T17:28:22.778Z,9.73
2019-03-31T17:30:54.947Z,9.62
2019-03-31T17:33:30.281Z,9.52
2019-03-31T17:36:02.426Z,9.39
2019-03-31T17:38:35.581Z,9.32
2019-03-31T17:41:09.123Z,9.22
2019-03-31T17:43:41.214Z,9.09
2019-03-31T17:46:13.740Z,9.02
2019-03-31T17:48:45.832Z,8.92
2019-03-31T17:51:19.173Z,8.82
2019-03-31T17:53:51.242Z,8.71
2019-03-31T17:56:22.677Z,8.61
2019-03-31T17:58:54.905Z,8.57
2019-03-31T18:01:26.762Z,8.44
2019-03-31T18:03:58.230Z,8.36
2019-03-31T18:06:29.732Z,8.25
2019-03-31T18:09:02.268Z,8.20
2019-03-31T18:11:35.051Z,8.12
2019-03-31T18:14:07.030Z,8.05
2019-03-31T18:16:38.870Z,7.95
2019-03-31T18:19:11.321Z,7.86
2019-03-31T18:21:43.153Z,7.78
2019-03-31T18:24:14.955Z,7.71
2019-03-31T18:26:47.065Z,7.64
2019-03-31T18:29:19.536Z,7.57
2019-03-31T18:31:51.593Z,7.51
2019-03-31T18:34:23.129Z,7.43
2019-03-31T18:36:55.255Z,7.37
2019-03-31T18:39:26.818Z,7.35
2019-03-31T18:41:58.982Z,7.27
2019-03-31T18:44:30.775Z,7.22
2019-03-31T18:47:02.644Z,7.17
2019-03-31T18:49:34.478Z,7.10
2019-03-31T18:52:06.232Z,7.04
2019-03-31T18:54:39.650Z,6.99
2019-03-31T18:57:19.200Z,6.92
2019-03-31T18:59:52.463Z,6.86
2019-03-31T19:02:25.276Z,6.83
2019-03-31T19:05:02.841Z,6.78
2019-03-31T19:07:37.069Z,6.72
2019-03-31T19:10:24.526Z,6.65
2019-03-31T19:12:53.197Z,6.58
2019-03-31T19:15:35.157Z,6.55
2019-03-31T19:18:22.133Z,6.45
2019-03-31T19:21:10.624Z,6.42
2019-03-31T19:23:32.736Z,6.35
2019-03-31T19:26:08.480Z,6.32
2019-03-31T19:28:44.571Z,6.24
2019-03-31T19:31:23.393Z,6.18
2019-03-31T19:33:54.826Z,6.11
2019-03-31T19:36:30.684Z,6.06
2019-03-31T19:39:03.844Z,6.01
2019-03-31T19:41:37.101Z,5.96
2019-03-31T19:44:15.903Z,5.92
2019-03-31T19:47:03.896Z,5.83
2019-03-31T19:49:52.282Z,5.80
2019-03-31T19:52:41.973Z,5.77
2019-03-31T19:55:31.874Z,5.67
2019-03-31T19:58:18.200Z,5.65
2019-03-31T20:00:57.205Z,5.58
2019-03-31T20:03:45.776Z,5.50
2019-03-31T20:06:26.183Z,5.43
2019-03-31T20:09:15.781Z,5.42
2019-03-31T20:11:49.441Z,5.35
2019-03-31T20:14:31.739Z,5.28
2019-03-31T20:17:08.310Z,5.32
2019-03-31T20:19:51.168Z,5.36
2019-03-31T20:22:25.831Z,5.29
2019-03-31T20:25:05.372Z,5.52
2019-03-31T20:27:41.877Z,5.41
2019-03-31T20:30:32.402Z,5.28
2019-03-31T20:33:19.021Z,5.32
2019-03-31T20:36:08.849Z,5.28
2019-03-31T20:38:48.580Z,5.32
2019-03-31T20:41:29.395Z,5.47
2019-03-31T20:44:01.509Z,5.45
2019-03-31T20:46:33.614Z,5.28
2019-03-31T20:49:05.509Z,5.38
2019-03-31T20:51:37.263Z,5.25
2019-03-31T20:54:10.303Z,5.52
2019-03-31T20:56:42.190Z,5.38
2019-03-31T20:59:14.482Z,5.41
2019-03-31T21:01:46.796Z,5.63
2019-03-31T21:04:19.056Z,5.38
2019-03-31T21:06:51.930Z,5.39
2019-03-31T21:09:23.984Z,5.39
2019-03-31T21:11:56.327Z,5.41
2019-03-31T21:14:28.849Z,5.42
2019-03-31T21:17:02.245Z,5.43
2019-03-31T21:19:34.749Z,5.56
2019-03-31T21:22:06.865Z,5.32
2019-03-31T21:24:40.280Z,5.63
2019-03-31T21:27:11.972Z,5.50
2019-03-31T21:29:43.575Z,5.25
2019-03-31T21:32:15.159Z,5.65
2019-03-31T21:34:46.839Z,5.43
2019-03-31T21:37:18.415Z,5.31
2019-03-31T21:39:49.895Z,5.39
2019-03-31T21:42:21.478Z,5.39
2019-03-31T21:44:53.022Z,5.43
2019-03-31T21:47:24.577Z,5.38
2019-03-31T21:49:56.262Z,5.69
2019-03-31T21:52:27.776Z,5.39
2019-03-31T21:54:59.241Z,5.46
2019-03-31T21:57:31.728Z,5.38
2019-03-31T22:00:03.338Z,5.46
2019-03-31T22:02:37.826Z,5.36
2019-03-31T22:05:09.353Z,5.66
2019-03-31T22:07:40.884Z,5.59
2019-03-31T22:10:12.489Z,5.24
2019-03-31T22:12:44.007Z,5.56
2019-03-31T22:15:16.543Z,5.24
2019-03-31T22:17:48.121Z,5.41
2019-03-31T22:20:19.589Z,5.42
2019-03-31T22:22:51.092Z,5.66
2019-03-31T22:25:22.570Z,5.24
2019-03-31T22:28:14.653Z,5.66
2019-03-31T22:30:52.638Z,5.31
2019-03-31T22:33:25.330Z,5.56
2019-03-31T22:36:14.598Z,5.26
2019-03-31T22:38:46.179Z,5.50
2019-03-31T22:41:17.692Z,5.31
2019-03-31T22:43:50.831Z,5.80
2019-03-31T22:46:22.337Z,5.36
2019-03-31T22:48:53.843Z,5.76
2019-03-31T22:51:25.497Z,5.50
2019-03-31T22:53:56.919Z,5.56
2019-03-31T22:56:28.346Z,5.76
2019-03-31T22:58:59.791Z,5.25
2019-03-31T23:01:31.370Z,5.80
2019-03-31T23:04:02.951Z,5.42
2019-03-31T23:06:34.545Z,5.79
2019-03-31T23:09:07.299Z,5.63
2019-03-31T23:11:38.838Z,5.26
2019-03-31T23:14:10.421Z,5.79
2019-03-31T23:16:42.006Z,5.32
2019-03-31T23:19:13.588Z,5.85
2019-03-31T23:21:46.010Z,5.52
2019-03-31T23:24:17.512Z,5.59
2019-03-31T23:26:49.048Z,5.69
2019-03-31T23:29:20.491Z,5.21
2019-03-31T23:31:52.030Z,5.75
2019-03-31T23:34:23.467Z,5.25
2019-03-31T23:36:55.002Z,5.83
2019-03-31T23:39:26.516Z,5.39
2019-03-31T23:41:57.980Z,5.90
2019-03-31T23:44:29.557Z,5.63
2019-03-31T23:47:02.159Z,5.39
2019-03-31T23:49:33.834Z,5.80
2019-03-31T23:52:05.465Z,5.26
2019-03-31T23:54:37.037Z,5.89
2019-03-31T23:57:09.059Z,5.41
2019-03-31T23:59:40.582Z,5.83
